Time;durP1;ratioP1;P1;durP2;ratioP2;P2;SDS_P1;SDS_P2;PMS_P1;PMS_P2;Temp;Humidity;BMP_temperature;BMP_pressure;BME280_temperature;BME280_humidity;BME280_pressure;Samples;Min_cycle;Max_cycle;Signal;HPM_P1;HPM_P2
2023/11/24 00:04:37;;;;;;;5.57;1.00;;;;;;;6.71;100.00;97490.50;15281282;19;20018;-52
2023/11/24 00:10:04;;;;;;;4.53;0.93;;;;;;;6.59;100.00;97505.16;15270189;19;20272;-53
2023/11/24 00:15:31;;;;;;;3.53;0.90;;;;;;;6.47;100.00;97501.91;15279060;19;20018;-53
2023/11/24 00:20:57;;;;;;;6.05;1.15;;;;;;;6.39;100.00;97521.44;15274215;19;20010;-53
2023/11/24 00:26:26;;;;;;;4.22;1.00;;;;;;;6.35;100.00;97540.66;15278321;19;20700;-53
2023/11/24 00:31:54;;;;;;;5.45;1.17;;;;;;;6.31;100.00;97564.16;15272386;19;20017;-52
2023/11/24 00:37:19;;;;;;;5.15;1.20;;;;;;;6.27;100.00;97562.81;15273472;19;20240;-51
2023/11/24 00:42:44;;;;;;;4.63;1.02;;;;;;;6.25;100.00;97575.50;15270643;19;20028;-55
2023/11/24 00:48:21;;;;;;;3.83;1.10;;;;;;;6.19;100.00;97560.06;15277137;19;20014;-53
2023/11/24 00:53:47;;;;;;;2.55;0.80;;;;;;;6.10;100.00;97585.91;15281593;19;20456;-54
2023/11/24 00:59:11;;;;;;;2.58;0.75;;;;;;;6.08;100.00;97578.03;15035710;19;5001691;-56
2023/11/24 01:04:38;;;;;;;3.58;0.90;;;;;;;6.07;100.00;97575.50;15274090;19;20035;-54
2023/11/24 01:10:04;;;;;;;2.78;0.85;;;;;;;6.06;100.00;97580.00;15270405;19;20019;-56
2023/11/24 01:15:28;;;;;;;6.65;1.48;;;;;;;6.08;100.00;97583.38;15266651;19;20022;-55
2023/11/24 01:20:56;;;;;;;3.78;1.00;;;;;;;6.07;100.00;97565.63;15259337;19;20018;-55
2023/11/24 01:26:21;;;;;;;3.30;0.90;;;;;;;6.03;100.00;97561.63;15271645;19;20022;-54
2023/11/24 01:31:45;;;;;;;3.95;0.77;;;;;;;5.99;100.00;97570.91;15267735;19;20074;-54
2023/11/24 01:37:12;;;;;;;5.00;0.90;;;;;;;5.98;100.00;97569.22;15270900;19;20010;-52
2023/11/24 01:42:38;;;;;;;3.78;0.80;;;;;;;5.94;100.00;97559.84;15271815;19;20010;-54
2023/11/24 01:48:11;;;;;;;6.88;1.05;;;;;;;5.89;100.00;97573.63;15264941;19;20039;-55
2023/11/24 01:53:38;;;;;;;4.78;1.00;;;;;;;5.81;100.00;97576.25;15266676;19;20022;-54
2023/11/24 01:59:04;;;;;;;3.13;0.90;;;;;;;5.77;100.00;97567.69;15267620;19;20011;-55
2023/11/24 02:04:29;;;;;;;4.97;0.90;;;;;;;5.71;100.00;97570.94;15268626;19;20030;-52
2023/11/24 02:09:56;;;;;;;3.53;0.90;;;;;;;5.70;100.00;97574.66;15266518;19;20018;-55
2023/11/24 02:15:21;;;;;;;2.03;0.80;;;;;;;5.68;100.00;97560.59;15259241;19;20033;-56
2023/11/24 02:20:46;;;;;;;3.72;0.95;;;;;;;5.63;100.00;97553.03;15261820;19;20019;-56
2023/11/24 02:26:14;;;;;;;4.43;1.00;;;;;;;5.55;100.00;97556.44;15270921;19;20469;-54
2023/11/24 02:31:38;;;;;;;4.43;1.00;;;;;;;5.52;100.00;97556.75;15263421;19;20014;-53
2023/11/24 02:37:03;;;;;;;3.50;1.10;;;;;;;5.44;100.00;97545.13;15267456;19;20090;-48
2023/11/24 02:42:30;;;;;;;5.22;1.13;;;;;;;5.39;100.00;97556.25;15265506;19;20014;-47
2023/11/24 02:48:01;;;;;;;6.40;1.40;;;;;;;5.31;100.00;97540.97;15258519;19;20031;-50
2023/11/24 02:53:27;;;;;;;8.35;1.50;;;;;;;5.27;100.00;97528.94;15262376;19;20483;-50
2023/11/24 02:58:55;;;;;;;5.88;1.50;;;;;;;5.23;100.00;97495.50;15262028;19;20022;-54
2023/11/24 03:04:20;;;;;;;7.10;1.55;;;;;;;5.16;100.00;97486.41;15265489;19;20488;-48
2023/11/24 03:09:45;;;;;;;9.00;1.63;;;;;;;5.12;100.00;97477.84;15262827;19;20018;-49
2023/11/24 03:15:14;;;;;;;5.38;1.30;;;;;;;5.12;100.00;97469.84;15264551;19;20026;-50
2023/11/24 03:20:39;;;;;;;7.65;1.48;;;;;;;5.22;100.00;97470.66;15269112;19;20012;-52
2023/11/24 03:26:04;;;;;;;5.95;1.30;;;;;;;5.30;100.00;97461.84;15280996;19;20015;-47
2023/11/24 03:31:32;;;;;;;5.60;1.23;;;;;;;5.33;100.00;97452.72;15273430;19;20022;-49
2023/11/24 03:36:57;;;;;;;7.75;1.42;;;;;;;5.35;100.00;97451.56;15280919;19;20018;-52
2023/11/24 03:42:21;;;;;;;5.47;1.20;;;;;;;5.35;100.00;97440.88;15277683;19;20054;-49
2023/11/24 03:47:57;;;;;;;6.18;1.50;;;;;;;5.33;100.00;97439.38;15170603;19;2004347;-50
2023/11/24 03:53:22;;;;;;;6.15;1.52;;;;;;;5.27;100.00;97427.47;15270629;19;20031;-52
2023/11/24 03:58:47;;;;;;;5.63;1.40;;;;;;;5.21;100.00;97423.56;15276215;19;20119;-51
2023/11/24 04:04:15;;;;;;;5.80;1.40;;;;;;;5.13;100.00;97407.44;15278428;19;20470;-50
2023/11/24 04:09:41;;;;;;;4.35;1.35;;;;;;;5.01;100.00;97408.66;15270794;19;20011;-54
2023/11/24 04:15:09;;;;;;;7.35;1.55;;;;;;;4.92;100.00;97400.56;15270707;19;20010;-53
2023/11/24 04:20:37;;;;;;;7.57;1.40;;;;;;;4.80;100.00;97387.59;15267864;19;20007;-51
2023/11/24 04:26:03;;;;;;;6.57;1.63;;;;;;;4.71;100.00;97386.66;15269163;19;20408;-52
2023/11/24 04:31:27;;;;;;;7.32;1.40;;;;;;;4.70;100.00;97387.66;15268030;19;20025;-50
2023/11/24 04:36:56;;;;;;;6.95;1.52;;;;;;;4.71;100.00;97384.81;15278216;19;20021;-52
2023/11/24 04:42:20;;;;;;;5.50;1.60;;;;;;;4.70;100.00;97395.66;15277132;19;20018;-52
2023/11/24 04:47:46;;;;;;;5.45;1.50;;;;;;;4.68;100.00;97390.47;15275039;19;20024;-50
2023/11/24 04:53:13;;;;;;;6.55;1.50;;;;;;;4.67;100.00;97362.13;15277212;19;21880;-50
2023/11/24 04:58:39;;;;;;;5.63;1.33;;;;;;;4.63;100.00;97366.94;15267981;19;20023;-53
2023/11/24 05:04:05;;;;;;;6.00;1.40;;;;;;;4.59;100.00;97346.88;15276565;19;20014;-51
2023/11/24 05:09:32;;;;;;;6.70;1.40;;;;;;;4.49;100.00;97362.09;15271836;19;20106;-52
2023/11/24 05:14:57;;;;;;;6.22;1.38;;;;;;;4.47;100.00;97361.38;15275842;19;20011;-54
2023/11/24 05:20:24;;;;;;;6.70;1.27;;;;;;;4.47;100.00;97366.72;15270994;19;20513;-51
2023/11/24 05:25:51;;;;;;;4.72;1.30;;;;;;;4.48;100.00;97373.75;15276008;19;20548;-51
2023/11/24 05:31:16;;;;;;;7.85;1.40;;;;;;;4.48;100.00;97357.75;15261515;19;20027;-50
2023/11/24 05:36:40;;;;;;;6.88;1.38;;;;;;;4.47;100.00;97359.56;15269044;19;20486;-50
2023/11/24 05:42:09;;;;;;;8.40;1.70;;;;;;;4.47;100.00;97356.06;15262974;19;20014;-52
2023/11/24 05:47:40;;;;;;;4.63;1.48;;;;;;;4.49;100.00;97343.41;15271972;19;20046;-52
2023/11/24 05:53:06;;;;;;;7.93;1.70;;;;;;;4.45;100.00;97331.34;15273508;19;20018;-48
2023/11/24 05:58:33;;;;;;;6.22;1.63;;;;;;;4.39;100.00;97323.97;15271463;19;20006;-51
2023/11/24 06:03:59;;;;;;;10.73;1.70;;;;;;;4.39;100.00;97321.31;15266861;19;20022;-51
2023/11/24 06:09:23;;;;;;;6.28;1.60;;;;;;;4.45;100.00;97334.88;15270304;19;20229;-51
2023/11/24 06:14:52;;;;;;;8.45;1.90;;;;;;;4.44;100.00;97332.34;15272407;19;20018;-52
2023/11/24 06:20:19;;;;;;;7.88;1.70;;;;;;;4.42;100.00;97331.66;15268283;19;20010;-50
2023/11/24 06:25:44;;;;;;;7.90;1.65;;;;;;;4.44;100.00;97343.00;15272303;19;20656;-49
2023/11/24 06:31:11;;;;;;;8.55;1.52;;;;;;;4.47;100.00;97327.53;15264215;19;21273;-52
2023/11/24 06:36:37;;;;;;;7.22;1.60;;;;;;;4.48;100.00;97334.56;15267260;19;20034;-51
2023/11/24 06:42:04;;;;;;;9.07;1.92;;;;;;;4.54;100.00;97310.97;15265914;19;20357;-50
2023/11/24 06:47:39;;;;;;;10.15;1.70;;;;;;;4.55;100.00;97324.13;15262492;19;20095;-50
2023/11/24 06:53:04;;;;;;;7.75;1.30;;;;;;;4.56;100.00;97319.66;15278520;19;20370;-50
2023/11/24 06:58:28;;;;;;;6.43;1.45;;;;;;;4.49;100.00;97306.09;15282864;19;20014;-50
2023/11/24 07:03:56;;;;;;;6.72;1.40;;;;;;;4.41;100.00;97300.66;15286013;19;20025;-50
2023/11/24 07:09:22;;;;;;;7.93;1.33;;;;;;;4.38;100.00;97288.44;15274323;19;20527;-50
2023/11/24 07:14:47;;;;;;;7.00;1.73;;;;;;;4.43;100.00;97296.00;15282023;19;20015;-53
2023/11/24 07:20:16;;;;;;;6.68;1.45;;;;;;;4.45;100.00;97291.34;15277645;19;20014;-50
2023/11/24 07:25:43;;;;;;;5.57;1.63;;;;;;;4.53;100.00;97277.28;15283815;19;20011;-50
2023/11/24 07:31:07;;;;;;;3.47;1.23;;;;;;;4.58;100.00;97259.00;15276261;19;20490;-49
2023/11/24 07:36:35;;;;;;;6.18;1.30;;;;;;;4.56;100.00;97248.47;15284608;19;20032;-52
2023/11/24 07:41:59;;;;;;;7.50;1.70;;;;;;;4.44;100.00;97252.34;15270084;19;20086;-50
2023/11/24 07:47:25;;;;;;;5.70;1.20;;;;;;;4.43;100.00;97245.34;15278906;19;20025;-50
2023/11/24 07:52:52;;;;;;;4.55;1.13;;;;;;;4.45;100.00;97243.34;15280948;19;20018;-50
2023/11/24 07:58:17;;;;;;;3.22;1.25;;;;;;;4.54;100.00;97258.44;15279132;19;20022;-51
2023/11/24 08:03:42;;;;;;;3.75;1.13;;;;;;;4.52;100.00;97243.59;15282406;19;20491;-50
2023/11/24 08:09:12;;;;;;;4.75;1.10;;;;;;;4.56;100.00;97256.47;15277344;19;20502;-51
2023/11/24 08:14:37;;;;;;;2.22;0.80;;;;;;;4.62;100.00;97239.00;15274749;19;20082;-50
2023/11/24 08:20:04;;;;;;;3.83;0.85;;;;;;;4.67;100.00;97246.56;15275673;19;20018;-52
2023/11/24 08:25:31;;;;;;;2.38;0.70;;;;;;;4.66;100.00;97239.53;15280545;19;20020;-51
2023/11/24 08:30:57;;;;;;;2.83;0.90;;;;;;;4.62;100.00;97244.34;15272756;19;20038;-52
2023/11/24 08:36:25;;;;;;;5.05;1.10;;;;;;;4.63;100.00;97238.88;15278943;19;20019;-49
2023/11/24 08:41:53;;;;;;;3.97;1.02;;;;;;;4.61;100.00;97243.53;15272371;19;20021;-49
2023/11/24 08:47:18;;;;;;;2.60;0.80;;;;;;;4.62;100.00;97234.53;15269450;19;20018;-52
2023/11/24 08:52:47;;;;;;;4.93;1.23;;;;;;;4.62;100.00;97229.19;15272065;19;20448;-50
2023/11/24 08:58:14;;;;;;;4.15;1.20;;;;;;;4.61;100.00;97226.66;15276930;19;20014;-50
2023/11/24 09:03:40;;;;;;;3.50;0.90;;;;;;;4.58;100.00;97222.47;15276627;19;20018;-51
2023/11/24 09:09:06;;;;;;;5.43;1.13;;;;;;;4.57;100.00;97220.81;15273652;19;20011;-49
2023/11/24 09:14:38;;;;;;;3.45;1.20;;;;;;;4.56;100.00;97224.47;15275266;19;20021;-51
2023/11/24 09:20:05;;;;;;;4.78;1.08;;;;;;;4.53;100.00;97238.09;15265053;19;20018;-51
2023/11/24 09:25:31;;;;;;;2.92;0.93;;;;;;;4.53;100.00;97214.09;15001051;19;5001294;-53
2023/11/24 09:31:04;;;;;;;3.05;1.00;;;;;;;4.54;100.00;97220.28;15270478;19;20009;-50
2023/11/24 09:36:30;;;;;;;2.95;0.90;;;;;;;4.56;100.00;97200.47;15276414;19;20484;-50
2023/11/24 09:41:57;;;;;;;4.72;1.23;;;;;;;4.61;100.00;97200.84;15269295;19;20645;-50
2023/11/24 09:47:25;;;;;;;4.45;0.90;;;;;;;4.63;100.00;97172.19;15271010;19;20074;-48
2023/11/24 09:52:51;;;;;;;2.92;0.80;;;;;;;4.63;100.00;97156.19;15274670;19;20014;-49
2023/11/24 09:58:20;;;;;;;4.22;1.00;;;;;;;4.61;100.00;97155.50;15271901;19;20031;-47
2023/11/24 10:03:48;;;;;;;3.85;1.08;;;;;;;4.44;100.00;97124.34;15275315;19;20020;-49
2023/11/24 10:09:31;;;;;;;5.88;1.08;;;;;;;4.18;100.00;97116.31;15268397;19;20010;-50
2023/11/24 10:14:56;;;;;;;5.68;1.30;;;;;;;3.97;100.00;97096.97;15273894;19;20433;-50
2023/11/24 10:20:28;;;;;;;3.97;1.10;;;;;;;3.66;100.00;97092.00;15264198;19;20518;-54
2023/11/24 10:25:53;;;;;;;4.00;1.10;;;;;;;3.17;100.00;97108.25;15274663;19;20329;-56
2023/11/24 10:31:17;;;;;;;3.10;0.93;;;;;;;2.75;100.00;97143.25;15267879;19;20591;-54
2023/11/24 10:36:46;;;;;;;2.80;0.80;;;;;;;1.89;100.00;97146.66;15274004;19;20096;-55
2023/11/24 10:42:15;;;;;;;2.55;0.75;;;;;;;1.39;100.00;97143.06;15268432;19;20017;-54
2023/11/24 10:47:47;;;;;;;0.63;0.40;;;;;;;0.92;100.00;97149.72;14978459;19;5001554;-49
2023/11/24 10:53:24;;;;;;;0.88;0.40;;;;;;;0.61;100.00;97136.47;15261818;19;20011;-53
2023/11/24 10:58:53;;;;;;;2.08;0.35;;;;;;;0.43;100.00;97122.97;15269716;19;20073;-52
2023/11/24 11:04:19;;;;;;;1.65;0.30;;;;;;;0.33;100.00;97116.75;15270438;19;20017;-53
2023/11/24 11:09:58;;;;;;;0.20;0.20;;;;;;;0.42;100.00;97115.13;15267123;19;20014;-50
2023/11/24 11:15:23;;;;;;;0.60;0.30;;;;;;;0.58;100.00;97152.59;15274441;19;20011;-54
2023/11/24 11:20:49;;;;;;;0.45;0.30;;;;;;;0.75;100.00;97145.06;15281245;19;20027;-50
2023/11/24 11:26:17;;;;;;;0.45;0.30;;;;;;;0.86;100.00;97141.47;15263155;19;20366;-54
2023/11/24 11:31:48;;;;;;;0.70;0.20;;;;;;;0.94;100.00;97140.81;15261737;19;20491;-50
2023/11/24 11:37:14;;;;;;;0.77;0.30;;;;;;;1.00;100.00;97135.00;15269971;19;20028;-53
2023/11/24 11:42:58;;;;;;;1.00;0.30;;;;;;;1.12;100.00;97127.75;15278478;19;20359;-49
2023/11/24 11:48:23;;;;;;;0.88;0.38;;;;;;;1.21;100.00;97117.19;15278395;19;20031;-48
2023/11/24 11:53:48;;;;;;;1.80;0.60;;;;;;;1.28;100.00;97117.50;15282074;19;20365;-49
2023/11/24 11:59:16;;;;;;;1.38;0.60;;;;;;;1.36;100.00;97114.13;15271435;19;20014;-48
2023/11/24 12:04:41;;;;;;;1.90;0.68;;;;;;;1.44;100.00;97111.66;15280941;19;20835;-49
2023/11/24 12:10:05;;;;;;;3.38;0.70;;;;;;;1.52;100.00;97095.91;15274411;19;20460;-49
2023/11/24 12:15:34;;;;;;;2.28;0.70;;;;;;;1.61;100.00;97077.44;15279673;19;20476;-53
2023/11/24 12:20:59;;;;;;;3.17;0.70;;;;;;;1.67;100.00;97096.31;15271694;19;20007;-49
2023/11/24 12:26:25;;;;;;;2.63;0.65;;;;;;;1.81;100.00;97092.44;15280799;19;20028;-52
2023/11/24 12:31:53;;;;;;;2.53;0.60;;;;;;;2.00;100.00;97077.47;15267381;19;20050;-49
2023/11/24 12:37:18;;;;;;;4.85;0.70;;;;;;;2.16;100.00;97084.88;15280228;19;20085;-51
2023/11/24 12:42:42;;;;;;;2.35;0.68;;;;;;;2.42;100.00;97073.66;15276288;19;20006;-48
2023/11/24 12:48:20;;;;;;;4.30;0.77;;;;;;;2.73;100.00;97060.13;15270535;19;20029;-49
2023/11/24 12:53:44;;;;;;;4.88;0.70;;;;;;;3.02;100.00;97041.38;15280116;19;20024;-47
2023/11/24 12:59:10;;;;;;;3.33;0.80;;;;;;;3.20;100.00;97062.72;15271522;19;20021;-48
2023/11/24 13:04:39;;;;;;;1.35;0.70;;;;;;;3.12;100.00;97032.53;15272610;19;20010;-49
2023/11/24 13:10:09;;;;;;;1.55;0.68;;;;;;;3.16;100.00;97000.16;15273465;19;20515;-48
2023/11/24 13:15:41;;;;;;;3.22;0.80;;;;;;;3.19;100.00;96981.19;15276259;19;20014;-50
2023/11/24 13:21:11;;;;;;;2.33;0.60;;;;;;;3.20;100.00;96982.03;15264937;19;20015;-50
2023/11/24 13:26:35;;;;;;;3.28;0.90;;;;;;;3.18;100.00;96981.34;15274307;19;20018;-46
2023/11/24 13:32:00;;;;;;;1.77;0.70;;;;;;;3.16;100.00;96970.03;15263526;19;20027;-49
2023/11/24 13:37:28;;;;;;;2.55;0.80;;;;;;;3.14;100.00;96982.63;15270152;19;20015;-52
2023/11/24 13:42:55;;;;;;;1.85;0.70;;;;;;;3.07;100.00;96982.38;15269813;19;20022;-52
2023/11/24 13:48:23;;;;;;;2.67;0.80;;;;;;;2.95;100.00;96987.09;15270563;19;20440;-51
2023/11/24 13:53:51;;;;;;;1.88;0.70;;;;;;;2.84;100.00;96966.03;15273602;19;20014;-53
2023/11/24 13:59:20;;;;;;;2.97;0.90;;;;;;;2.77;100.00;96966.59;15269734;19;20042;-48
2023/11/24 14:04:45;;;;;;;5.43;0.90;;;;;;;2.74;100.00;96955.44;15269637;19;20018;-52
2023/11/24 14:10:13;;;;;;;3.58;0.90;;;;;;;2.83;100.00;96974.97;15264386;19;20010;-51
2023/11/24 14:15:39;;;;;;;3.70;1.00;;;;;;;2.90;100.00;96955.63;15270301;19;20024;-53
2023/11/24 14:21:04;;;;;;;3.42;1.10;;;;;;;2.95;100.00;96941.03;15261895;19;20341;-54
2023/11/24 14:26:33;;;;;;;3.42;0.88;;;;;;;2.98;100.00;96930.94;15269559;19;20028;-52
2023/11/24 14:31:59;;;;;;;5.30;1.35;;;;;;;3.02;100.00;96926.97;15264585;19;20028;-49
2023/11/24 14:37:25;;;;;;;5.82;1.10;;;;;;;3.04;100.00;96898.41;15270339;19;20489;-51
2023/11/24 14:42:53;;;;;;;4.50;0.88;;;;;;;3.06;100.00;96901.75;15263251;19;20086;-49
2023/11/24 14:48:18;;;;;;;2.83;0.82;;;;;;;3.04;100.00;96886.94;15265248;19;20030;-49
2023/11/24 14:53:42;;;;;;;2.35;0.95;;;;;;;3.02;100.00;96876.44;15269391;19;20467;-52
2023/11/24 14:59:09;;;;;;;3.10;0.90;;;;;;;2.98;100.00;96855.59;15266292;19;20018;-52
2023/11/24 15:04:34;;;;;;;4.82;1.20;;;;;;;2.90;100.00;96848.38;15265567;19;20400;-51
2023/11/24 15:09:59;;;;;;;4.38;0.90;;;;;;;2.81;100.00;96867.91;15263835;19;20077;-52
2023/11/24 15:15:27;;;;;;;3.65;1.00;;;;;;;2.77;100.00;96880.69;15275377;19;20036;-53
2023/11/24 15:20:53;;;;;;;4.13;1.05;;;;;;;2.76;100.00;96871.03;15275226;19;20033;-48
2023/11/24 15:26:23;;;;;;;2.72;0.98;;;;;;;2.75;100.00;96867.53;15281358;19;20019;-51
2023/11/24 15:31:51;;;;;;;6.65;1.00;;;;;;;2.74;100.00;96863.22;15275826;19;20031;-50
2023/11/24 15:37:15;;;;;;;5.40;1.10;;;;;;;2.76;100.00;96860.38;15282027;19;20029;-53
2023/11/24 15:42:41;;;;;;;3.65;0.80;;;;;;;2.80;100.00;96858.25;15280283;19;20021;-53
2023/11/24 15:48:09;;;;;;;5.13;1.15;;;;;;;2.72;100.00;96867.84;15270915;19;20482;-53
2023/11/24 15:53:35;;;;;;;5.35;0.93;;;;;;;2.29;100.00;96872.84;15280395;19;20484;-53
2023/11/24 15:59:05;;;;;;;3.58;1.20;;;;;;;1.99;100.00;96876.59;15277403;19;20018;-52
2023/11/24 16:04:34;;;;;;;5.90;1.23;;;;;;;1.81;100.00;96901.25;15273985;19;20021;-53
2023/11/24 16:10:09;;;;;;;4.53;0.80;;;;;;;1.70;100.00;96893.47;15276789;19;20029;-48
2023/11/24 16:15:34;;;;;;;3.22;1.00;;;;;;;1.62;100.00;96917.22;15274764;19;20018;-48
2023/11/24 16:21:02;;;;;;;2.45;0.80;;;;;;;1.59;100.00;96925.47;15272914;19;20021;-54
2023/11/24 16:26:28;;;;;;;3.03;1.10;;;;;;;1.53;100.00;96911.78;15278308;19;20029;-50
2023/11/24 16:31:54;;;;;;;3.40;0.80;;;;;;;1.51;100.00;96920.88;15268453;19;20385;-55
2023/11/24 16:37:21;;;;;;;1.17;0.63;;;;;;;1.49;100.00;96925.47;15268894;19;20470;-56
2023/11/24 16:42:46;;;;;;;1.02;0.50;;;;;;;1.41;100.00;96925.34;15262107;19;20026;-53
2023/11/24 16:48:17;;;;;;;1.35;0.70;;;;;;;1.31;100.00;96914.75;15255774;19;20018;-52
2023/11/24 16:53:46;;;;;;;1.58;0.70;;;;;;;1.29;100.00;96912.25;15258895;19;20022;-53
2023/11/24 16:59:10;;;;;;;1.95;0.70;;;;;;;1.31;100.00;96917.41;15262009;19;20093;-50
2023/11/24 17:04:36;;;;;;;1.63;0.70;;;;;;;1.40;100.00;96935.13;15257314;19;20033;-50
2023/11/24 17:10:04;;;;;;;1.67;0.70;;;;;;;1.47;100.00;96941.53;15259672;19;20031;-49
2023/11/24 17:15:29;;;;;;;1.27;0.85;;;;;;;1.48;100.00;96959.13;15263200;19;20024;-52
2023/11/24 17:20:53;;;;;;;1.05;0.85;;;;;;;1.49;100.00;96957.31;15254909;19;20035;-52
2023/11/24 17:26:20;;;;;;;2.08;0.90;;;;;;;1.48;100.00;96956.47;15263955;19;20026;-52
2023/11/24 17:31:45;;;;;;;1.23;0.70;;;;;;;1.47;100.00;96946.00;15258661;19;20081;-54
2023/11/24 17:37:10;;;;;;;2.65;0.70;;;;;;;1.50;100.00;96943.91;15265608;19;20021;-54
2023/11/24 17:42:37;;;;;;;3.05;0.63;;;;;;;1.57;100.00;96946.00;15262244;19;20018;-49
2023/11/24 17:48:10;;;;;;;1.80;0.70;;;;;;;1.62;100.00;96907.44;15263140;19;20029;-51
2023/11/24 17:53:35;;;;;;;2.00;1.00;;;;;;;1.68;100.00;96898.06;15259983;19;20398;-48
2023/11/24 17:59:03;;;;;;;2.78;0.52;;;;;;;1.75;100.00;96896.50;15261351;19;20539;-54
2023/11/24 18:04:28;;;;;;;3.85;0.90;;;;;;;1.76;100.00;96889.41;15261150;19;20086;-51
2023/11/24 18:09:54;;;;;;;4.15;0.88;;;;;;;1.76;100.00;96889.41;15253483;19;20026;-52
2023/11/24 18:15:22;;;;;;;2.40;1.10;;;;;;;1.75;100.00;96887.72;15264167;19;20011;-53
2023/11/24 18:20:46;;;;;;;1.27;0.73;;;;;;;1.78;100.00;96875.00;15260527;19;20017;-51
2023/11/24 18:26:12;;;;;;;5.25;1.27;;;;;;;1.75;100.00;96877.94;15255185;19;20279;-49
2023/11/24 18:31:39;;;;;;;2.47;0.80;;;;;;;1.75;100.00;96885.91;15258371;19;20086;-50
2023/11/24 18:37:05;;;;;;;2.65;0.70;;;;;;;1.74;100.00;96889.53;15262187;19;20393;-51
2023/11/24 18:42:29;;;;;;;2.75;0.80;;;;;;;1.74;100.00;96878.09;15259286;19;20600;-50
2023/11/24 18:47:57;;;;;;;2.55;0.63;;;;;;;1.71;100.00;96860.59;15259190;19;20789;-58
2023/11/24 18:53:22;;;;;;;3.78;1.08;;;;;;;1.71;100.00;96852.63;15260689;19;20038;-55
2023/11/24 18:58:47;;;;;;;3.22;0.80;;;;;;;1.69;100.00;96839.53;15252814;19;20018;-52
2023/11/24 19:04:14;;;;;;;3.58;0.80;;;;;;;1.69;100.00;96844.00;15259120;19;20475;-52
2023/11/24 19:09:40;;;;;;;2.13;1.00;;;;;;;1.68;100.00;96826.41;15234677;19;20011;-56
2023/11/24 19:15:04;;;;;;;2.10;0.75;;;;;;;1.65;100.00;96821.38;15261548;19;20038;-52
2023/11/24 19:20:33;;;;;;;2.45;0.90;;;;;;;1.62;100.00;96809.25;15258018;19;20374;-53
2023/11/24 19:25:57;;;;;;;4.65;1.10;;;;;;;1.65;100.00;96802.78;15256639;19;20013;-55
2023/11/24 19:31:30;;;;;;;3.92;1.10;;;;;;;1.67;100.00;96782.25;15109634;19;10001089;-54
2023/11/24 19:36:58;;;;;;;4.85;1.20;;;;;;;1.68;100.00;96770.66;15259979;19;20355;-50
2023/11/24 19:42:23;;;;;;;4.22;1.00;;;;;;;1.69;100.00;96773.16;15259903;19;20011;-53
2023/11/24 19:47:48;;;;;;;6.03;1.05;;;;;;;1.73;100.00;96754.28;15258793;19;20464;-50
2023/11/24 19:53:18;;;;;;;5.30;1.48;;;;;;;1.72;100.00;96747.31;15296746;19;20460;-55
2023/11/24 19:58:43;;;;;;;3.47;0.77;;;;;;;1.71;100.00;96735.00;15289847;19;20018;-53
2023/11/24 20:04:09;;;;;;;4.90;1.10;;;;;;;1.72;100.00;96769.38;15289628;19;20024;-49
2023/11/24 20:09:36;;;;;;;6.20;1.35;;;;;;;1.75;100.00;96734.56;15265043;19;20351;-51
2023/11/24 20:15:02;;;;;;;5.78;1.20;;;;;;;1.74;100.00;96718.78;15270750;19;20021;-52
2023/11/24 20:20:26;;;;;;;2.10;1.10;;;;;;;1.73;100.00;96723.25;15259340;19;20039;-50
2023/11/24 20:25:55;;;;;;;1.30;0.70;;;;;;;1.77;100.00;96724.63;15259538;19;20657;-48
2023/11/24 20:31:19;;;;;;;2.95;0.75;;;;;;;1.84;100.00;96736.31;15257109;19;20090;-49
2023/11/24 20:36:46;;;;;;;3.30;0.93;;;;;;;1.87;100.00;96732.56;15263965;19;21543;-53
2023/11/24 20:42:15;;;;;;;1.77;0.65;;;;;;;1.89;100.00;96705.84;15267931;19;20104;-49
2023/11/24 20:47:40;;;;;;;4.18;0.90;;;;;;;1.90;100.00;96716.31;15266083;19;20102;-50
2023/11/24 20:53:07;;;;;;;4.50;1.02;;;;;;;1.88;100.00;96731.59;15266126;19;20041;-55
2023/11/24 20:58:36;;;;;;;2.05;0.80;;;;;;;1.90;100.00;96691.59;15262972;19;20023;-52
2023/11/24 21:04:00;;;;;;;1.75;0.90;;;;;;;1.87;100.00;96707.81;15261264;19;20025;-52
2023/11/24 21:09:25;;;;;;;1.95;0.80;;;;;;;1.88;100.00;96677.63;15255359;19;20382;-55
2023/11/24 21:14:52;;;;;;;2.10;0.73;;;;;;;1.77;100.00;96681.31;15262387;19;20015;-48
2023/11/24 21:20:20;;;;;;;3.20;1.05;;;;;;;1.41;100.00;96705.13;15262465;19;20010;-52
2023/11/24 21:25:47;;;;;;;2.55;0.80;;;;;;;1.05;100.00;96700.47;15261547;19;20240;-51
2023/11/24 21:31:15;;;;;;;5.05;1.08;;;;;;;0.76;100.00;96719.97;15257411;19;20025;-54
2023/11/24 21:36:39;;;;;;;6.28;0.90;;;;;;;0.48;100.00;96758.72;15264168;19;20035;-49
2023/11/24 21:42:04;;;;;;;2.33;0.60;;;;;;;0.21;100.00;96754.97;15246450;19;20018;-54
2023/11/24 21:47:33;;;;;;;6.45;0.70;;;;;;;0.08;100.00;96736.66;15257223;19;20505;-52
2023/11/24 21:52:58;;;;;;;8.82;0.70;;;;;;;0.02;100.00;96758.41;15255193;19;20039;-52
2023/11/24 21:58:22;;;;;;;4.88;0.80;;;;;;;0.01;100.00;96777.91;15253259;19;20618;-53
2023/11/24 22:03:51;;;;;;;5.53;0.80;;;;;;;-0.02;100.00;96801.03;15248314;19;20026;-50
2023/11/24 22:09:16;;;;;;;3.80;0.50;;;;;;;-0.05;100.00;96822.47;15250727;19;20014;-49
2023/11/24 22:14:42;;;;;;;1.92;0.57;;;;;;;-0.08;100.00;96822.75;15251305;19;20021;-51
2023/11/24 22:20:10;;;;;;;1.10;0.60;;;;;;;-0.09;100.00;96841.41;15249928;19;20374;-52
2023/11/24 22:25:39;;;;;;;1.95;0.70;;;;;;;-0.11;100.00;96870.66;15263243;19;20022;-52
2023/11/24 22:31:09;;;;;;;2.35;0.80;;;;;;;-0.10;100.00;96880.28;15263211;19;20006;-52
2023/11/24 22:36:37;;;;;;;1.38;0.80;;;;;;;-0.10;100.00;96893.53;15267374;19;20039;-51
2023/11/24 22:42:01;;;;;;;2.42;0.77;;;;;;;-0.09;100.00;96905.78;15252077;19;20028;-49
2023/11/24 22:47:26;;;;;;;3.63;0.82;;;;;;;-0.07;100.00;96908.28;15255298;19;20102;-51
2023/11/24 22:52:53;;;;;;;3.58;1.00;;;;;;;-0.07;100.00;96935.63;15266048;19;20035;-50
2023/11/24 22:58:18;;;;;;;1.60;0.73;;;;;;;-0.07;100.00;96977.13;15268502;19;20484;-49
2023/11/24 23:03:44;;;;;;;1.98;0.70;;;;;;;-0.03;100.00;96994.44;15268022;19;20087;-47
2023/11/24 23:09:12;;;;;;;2.30;0.80;;;;;;;-0.02;100.00;97012.81;15266599;19;20411;-48
2023/11/24 23:14:38;;;;;;;2.95;0.77;;;;;;;-0.01;100.00;97018.97;15265721;19;20025;-52
2023/11/24 23:20:04;;;;;;;1.13;0.60;;;;;;;0.00;100.00;97033.91;15265411;19;20018;-53
2023/11/24 23:25:31;;;;;;;1.80;0.63;;;;;;;-0.01;100.00;97045.44;15265521;19;20053;-51
2023/11/24 23:30:56;;;;;;;1.80;0.60;;;;;;;-0.03;100.00;97098.50;15264242;19;20886;-49
2023/11/24 23:36:22;;;;;;;1.65;0.60;;;;;;;-0.04;100.00;97078.28;15279256;19;20022;-47
2023/11/24 23:41:51;;;;;;;1.60;0.80;;;;;;;-0.04;100.00;97088.88;15276826;19;20519;-48
2023/11/24 23:47:16;;;;;;;0.75;0.70;;;;;;;-0.03;100.00;97110.91;15273235;19;20070;-49
2023/11/24 23:52:50;;;;;;;2.10;0.73;;;;;;;-0.04;100.00;97120.66;15282090;19;20784;-47
2023/11/24 23:58:18;;;;;;;1.30;0.80;;;;;;;-0.02;100.00;97131.97;15280259;19;20035;-50
